Time;durP1;ratioP1;P1;durP2;ratioP2;P2;SDS_P1;SDS_P2;PMS_P1;PMS_P2;Temp;Humidity;BMP_temperature;BMP_pressure;BME280_temperature;BME280_humidity;BME280_pressure;Samples;Min_cycle;Max_cycle;Signal;HPM_P1;HPM_P2
2022/05/25 00:01:08;;;;;;;0.40;0.40;;;;;;;15.64;52.38;98566.78;4974051;28;41381;-78
2022/05/25 00:03:37;;;;;;;0.40;0.40;;;;;;;15.54;52.75;98556.03;4974174;28;41530;-78
2022/05/25 00:06:07;;;;;;;0.77;0.60;;;;;;;15.64;52.35;98577.47;4958017;28;43503;-77
2022/05/25 00:08:35;;;;;;;1.17;0.73;;;;;;;15.60;52.65;98570.69;4974556;28;43085;-77
2022/05/25 00:11:03;;;;;;;0.60;0.60;;;;;;;15.64;52.43;98577.47;4974482;28;39171;-77
2022/05/25 00:13:32;;;;;;;1.40;0.60;;;;;;;15.65;52.56;98584.50;4957763;28;41023;-77
2022/05/25 00:16:00;;;;;;;0.53;0.50;;;;;;;15.59;52.86;98575.19;4957611;28;43705;-75
2022/05/25 00:18:30;;;;;;;0.57;0.50;;;;;;;15.65;53.23;98579.16;4974065;28;42413;-76
2022/05/25 00:20:56;;;;;;;0.83;0.60;;;;;;;15.64;53.19;98577.47;4957687;28;40096;-76
2022/05/25 00:23:24;;;;;;;0.50;0.40;;;;;;;15.62;52.76;98574.06;4957563;28;41605;-77
2022/05/25 00:25:52;;;;;;;1.20;0.67;;;;;;;15.68;52.94;98584.22;4972836;28;43788;-79
2022/05/25 00:28:20;;;;;;;0.50;0.50;;;;;;;15.67;53.06;98574.53;4957478;28;41167;-76
2022/05/25 00:30:49;;;;;;;1.53;0.50;;;;;;;15.68;53.33;98578.91;4957704;28;40906;-76
2022/05/25 00:33:21;;;;;;;0.60;0.60;;;;;;;15.65;53.29;98576.50;4957705;28;40734;-75
2022/05/25 00:35:49;;;;;;;1.03;0.57;;;;;;;15.65;53.32;98573.81;4957846;28;42821;-78
2022/05/25 00:38:16;;;;;;;0.60;0.60;;;;;;;15.65;53.38;98571.16;4974754;28;42356;-77
2022/05/25 00:40:46;;;;;;;0.60;0.60;;;;;;;15.66;53.47;98564.84;4957514;28;38474;-76
2022/05/25 00:43:15;;;;;;;1.00;0.70;;;;;;;15.67;53.18;98571.88;4973603;28;41581;-76
2022/05/25 00:45:46;;;;;;;0.40;0.40;;;;;;;15.66;53.35;98564.84;4956980;28;41711;-78
2022/05/25 00:48:22;;;;;;;0.60;0.60;;;;;;;15.69;53.08;98572.56;4973235;28;42479;-75
2022/05/25 00:53:35;;;;;;;0.70;0.43;;;;;;;15.66;53.23;98559.50;4970530;28;41744;-80
2022/05/25 00:56:03;;;;;;;0.70;0.50;;;;;;;15.62;53.21;98550.06;4957358;28;42849;-77
2022/05/25 00:58:31;;;;;;;0.50;0.50;;;;;;;15.55;53.75;98556.94;4974737;28;42794;-78
2022/05/25 01:01:00;;;;;;;1.13;0.60;;;;;;;15.51;53.73;98552.78;4957083;28;38675;-79
2022/05/25 01:03:29;;;;;;;0.60;0.50;;;;;;;15.41;53.87;98545.59;4957200;28;40577;-78
2022/05/25 01:06:04;;;;;;;0.60;0.60;;;;;;;15.38;53.85;98548.53;4956949;28;42353;-76
2022/05/25 01:08:44;;;;;;;1.37;0.50;;;;;;;15.34;53.99;98555.09;4973284;28;42773;-75
2022/05/25 01:11:23;;;;;;;0.40;0.40;;;;;;;15.21;53.99;98538.47;4973454;28;41034;-76
2022/05/25 01:14:00;;;;;;;0.50;0.50;;;;;;;15.21;54.21;98551.78;4970326;28;41725;-76
2022/05/25 01:16:38;;;;;;;0.60;0.43;;;;;;;15.14;54.71;98542.66;4972619;28;43597;-75
2022/05/25 01:19:15;;;;;;;0.60;0.60;;;;;;;15.10;54.71;98543.88;4956907;28;41002;-78
2022/05/25 01:21:53;;;;;;;0.50;0.50;;;;;;;15.03;55.36;98540.06;4972757;28;41056;-77
2022/05/25 01:24:34;;;;;;;0.50;0.50;;;;;;;14.99;55.64;98543.94;4956787;28;40743;-78
2022/05/25 01:27:30;;;;;;;0.70;0.70;;;;;;;14.93;55.60;98555.16;4956392;28;42022;-80
2022/05/25 01:30:16;;;;;;;0.50;0.50;;;;;;;14.88;55.96;98560.88;4973704;28;42339;-74
2022/05/25 01:33:08;;;;;;;0.43;0.40;;;;;;;14.85;56.20;98568.28;4972785;28;39902;-77
2022/05/25 01:35:48;;;;;;;0.83;0.70;;;;;;;14.81;57.01;98566.88;4973082;28;42738;-75
2022/05/25 01:38:23;;;;;;;0.60;0.60;;;;;;;14.78;56.69;98572.44;4973275;28;41570;-78
2022/05/25 01:41:00;;;;;;;0.70;0.67;;;;;;;14.71;56.82;98561.47;4956322;28;42092;-79
2022/05/25 01:43:33;;;;;;;1.23;0.43;;;;;;;14.71;57.45;98564.94;4970052;28;41287;-75
2022/05/25 01:46:07;;;;;;;0.60;0.60;;;;;;;14.68;57.21;98567.91;4972335;28;41773;-76
2022/05/25 01:48:39;;;;;;;0.60;0.60;;;;;;;14.67;57.41;98571.53;4956610;28;43164;-76
2022/05/25 01:51:11;;;;;;;0.53;0.53;;;;;;;14.65;57.50;98568.16;4956277;28;41151;-77
2022/05/25 01:53:44;;;;;;;0.80;0.80;;;;;;;14.63;57.10;98570.09;4969721;28;39681;-75
2022/05/25 01:56:14;;;;;;;0.80;0.80;;;;;;;14.62;57.13;98576.38;4972470;28;41794;-78
2022/05/25 01:58:47;;;;;;;1.03;0.70;;;;;;;14.62;57.28;98572.88;4972477;28;41532;-77
2022/05/25 02:01:16;;;;;;;0.73;0.60;;;;;;;14.61;57.34;98577.34;4971715;28;43437;-75
2022/05/25 02:06:59;;;;;;;0.70;0.60;;;;;;;14.62;57.46;98576.38;4956421;28;40718;-78
2022/05/25 02:09:41;;;;;;;0.60;0.60;;;;;;;14.59;57.16;98573.97;4966589;28;41677;-76
2022/05/25 02:12:22;;;;;;;0.87;0.50;;;;;;;14.53;57.14;98566.50;4969182;28;43219;-79
2022/05/25 02:14:56;;;;;;;0.80;0.80;;;;;;;14.60;57.38;98581.00;4969615;28;41691;-77
2022/05/25 02:17:33;;;;;;;0.70;0.70;;;;;;;14.60;57.08;98578.31;4969477;28;42790;-77
2022/05/25 02:20:07;;;;;;;1.53;0.70;;;;;;;14.61;56.88;98588.00;4969757;28;42861;-77
2022/05/25 02:22:42;;;;;;;0.60;0.60;;;;;;;14.60;56.98;98589.00;4955977;28;42341;-74
2022/05/25 02:25:18;;;;;;;0.60;0.60;;;;;;;14.58;57.16;98582.97;4956151;28;40176;-75
2022/05/25 02:27:50;;;;;;;0.70;0.70;;;;;;;14.58;57.15;98576.78;4969083;28;42711;-75
2022/05/25 02:30:23;;;;;;;1.63;0.60;;;;;;;14.55;57.31;98572.56;4972205;28;41213;-76
2022/05/25 02:32:55;;;;;;;0.50;0.50;;;;;;;14.55;57.91;98577.88;4956345;28;41882;-77
2022/05/25 02:35:25;;;;;;;0.70;0.70;;;;;;;14.55;57.87;98591.22;4970168;28;39857;-76
2022/05/25 02:37:57;;;;;;;0.70;0.70;;;;;;;14.54;57.79;98597.50;4971784;28;41963;-78
2022/05/25 02:40:28;;;;;;;0.60;0.60;;;;;;;14.51;58.26;98594.25;4955672;28;41744;-78
2022/05/25 02:42:55;;;;;;;0.70;0.70;;;;;;;14.47;58.38;98596.31;4973626;28;42028;-77
2022/05/25 02:45:23;;;;;;;1.07;0.70;;;;;;;14.48;58.74;98603.31;4960092;28;39932;-76
2022/05/25 02:47:52;;;;;;;1.10;0.90;;;;;;;14.48;59.09;98602.47;4960760;28;42598;-76
2022/05/25 02:50:20;;;;;;;0.70;0.70;;;;;;;14.46;59.37;98605.31;4961446;28;41761;-77
2022/05/25 02:52:48;;;;;;;0.90;0.70;;;;;;;14.46;59.06;98602.63;4977828;28;42472;-76
2022/05/25 02:55:16;;;;;;;0.60;0.60;;;;;;;14.46;58.76;98615.97;4961029;28;39960;-77
2022/05/25 02:57:44;;;;;;;1.87;0.93;;;;;;;14.46;58.88;98615.97;4960328;28;40849;-76
2022/05/25 03:00:13;;;;;;;1.47;0.80;;;;;;;14.45;59.33;98614.25;4955383;28;41775;-77
2022/05/25 03:02:41;;;;;;;0.70;0.70;;;;;;;14.43;58.96;98616.19;4971419;28;42204;-77
2022/05/25 03:05:13;;;;;;;0.83;0.83;;;;;;;14.42;58.80;98622.50;4971601;28;42240;-79
2022/05/25 03:07:41;;;;;;;0.70;0.70;;;;;;;14.42;58.95;98629.66;4969895;28;42577;-76
2022/05/25 03:10:10;;;;;;;0.60;0.60;;;;;;;14.31;58.85;98617.16;4971553;28;42413;-75
2022/05/25 03:12:38;;;;;;;0.60;0.60;;;;;;;14.38;59.32;98623.69;4955517;28;42415;-76
2022/05/25 03:15:07;;;;;;;1.00;0.67;;;;;;;14.36;59.00;98621.13;4971195;28;39919;-79
2022/05/25 03:17:34;;;;;;;0.93;0.50;;;;;;;14.35;59.27;98615.94;4971517;28;43586;-77
2022/05/25 03:20:02;;;;;;;0.50;0.50;;;;;;;14.27;59.41;98605.91;4971180;28;42669;-78
2022/05/25 03:22:34;;;;;;;0.70;0.70;;;;;;;14.18;59.78;98593.34;4971485;28;42313;-78
2022/05/25 03:25:02;;;;;;;0.60;0.60;;;;;;;14.29;59.65;98619.97;4969058;28;39810;-77
2022/05/25 03:27:29;;;;;;;1.20;0.90;;;;;;;14.28;59.88;98628.06;4954935;28;40567;-79
2022/05/25 03:29:57;;;;;;;0.47;0.43;;;;;;;14.27;59.52;98631.69;4954884;28;42848;-74
2022/05/25 03:32:25;;;;;;;0.70;0.70;;;;;;;14.21;59.10;98621.56;4972450;28;42218;-75
2022/05/25 03:34:52;;;;;;;0.67;0.67;;;;;;;14.30;59.17;98637.63;4954725;28;40276;-74
2022/05/25 03:37:20;;;;;;;1.67;0.60;;;;;;;14.31;58.90;98643.81;4955020;28;40506;-78
2022/05/25 03:39:49;;;;;;;1.00;0.90;;;;;;;14.29;58.74;98641.28;4971253;28;42818;-77
2022/05/25 03:42:19;;;;;;;0.90;0.80;;;;;;;14.31;58.99;98649.13;4955066;28;42115;-76
2022/05/25 03:44:47;;;;;;;1.50;0.80;;;;;;;14.32;59.12;98645.50;4954554;28;39839;-78
2022/05/25 03:47:15;;;;;;;0.60;0.60;;;;;;;14.32;59.01;98645.50;4971162;28;41856;-75
2022/05/25 03:49:43;;;;;;;0.60;0.60;;;;;;;14.33;58.71;98653.38;4970995;28;43785;-75
2022/05/25 03:52:11;;;;;;;0.60;0.60;;;;;;;14.34;58.83;98654.22;4954712;28;41239;-79
2022/05/25 03:54:39;;;;;;;1.13;0.80;;;;;;;14.35;58.96;98650.56;4972028;28;40733;-75
2022/05/25 03:57:08;;;;;;;0.87;0.63;;;;;;;14.37;58.88;98659.28;4971208;28;41786;-78
2022/05/25 03:59:36;;;;;;;0.60;0.60;;;;;;;14.40;58.75;98661.75;4955891;28;42562;-77
2022/05/25 04:02:04;;;;;;;1.53;0.70;;;;;;;14.42;59.14;98662.47;4958158;28;41451;-79
2022/05/25 04:04:32;;;;;;;0.80;0.80;;;;;;;14.43;58.93;98668.66;4974217;28;39954;-75
2022/05/25 04:06:59;;;;;;;0.70;0.60;;;;;;;14.42;59.07;98662.47;4974367;28;42554;-76
2022/05/25 04:09:27;;;;;;;0.60;0.60;;;;;;;14.45;58.99;98662.22;4957990;28;41700;-76
2022/05/25 04:11:55;;;;;;;0.97;0.80;;;;;;;14.33;58.99;98648.06;4957851;28;41166;-79
2022/05/25 04:14:24;;;;;;;1.67;0.70;;;;;;;14.47;59.04;98675.38;4974095;28;39952;-76
2022/05/25 04:16:52;;;;;;;0.90;0.63;;;;;;;14.48;59.16;98677.94;4956844;28;40343;-76
2022/05/25 04:19:19;;;;;;;0.80;0.63;;;;;;;14.50;59.12;98676.00;4957775;28;41760;-77
2022/05/25 04:21:47;;;;;;;1.23;0.60;;;;;;;14.54;59.08;98681.94;4974895;28;42314;-80
2022/05/25 04:24:16;;;;;;;0.80;0.77;;;;;;;14.58;58.70;98689.56;4974072;28;40135;-77
2022/05/25 04:26:44;;;;;;;0.70;0.70;;;;;;;14.61;58.78;98683.97;4957270;28;43122;-77
2022/05/25 04:29:12;;;;;;;0.63;0.63;;;;;;;14.60;59.02;98679.59;4974973;28;42756;-80
2022/05/25 04:31:41;;;;;;;1.13;0.83;;;;;;;14.69;58.94;98696.69;4974724;28;42089;-77
2022/05/25 04:34:11;;;;;;;0.77;0.77;;;;;;;14.73;59.10;98692.78;4974001;28;39925;-78
2022/05/25 04:36:40;;;;;;;0.93;0.63;;;;;;;14.76;59.15;98697.00;4957711;28;40404;-80
2022/05/25 04:39:08;;;;;;;0.67;0.67;;;;;;;14.64;59.11;98678.38;4973528;28;42281;-76
2022/05/25 04:41:36;;;;;;;0.77;0.77;;;;;;;14.79;59.19;98696.75;4956970;28;41492;-79
2022/05/25 04:44:05;;;;;;;0.70;0.70;;;;;;;14.81;59.44;98692.16;4957410;28;40391;-74
2022/05/25 04:46:32;;;;;;;0.63;0.63;;;;;;;14.83;59.35;98695.56;4956999;28;43445;-75
2022/05/25 04:49:02;;;;;;;0.70;0.70;;;;;;;14.78;59.08;98682.59;4973326;28;42010;-75
2022/05/25 04:51:30;;;;;;;0.67;0.67;;;;;;;14.94;58.99;98700.84;4973115;28;41178;-75
2022/05/25 04:53:58;;;;;;;1.17;0.60;;;;;;;15.00;59.20;98705.66;4973521;28;40946;-76
2022/05/25 04:59:10;;;;;;;1.47;0.67;;;;;;;15.15;59.53;98712.38;4956922;28;41853;-76
2022/05/25 05:01:38;;;;;;;2.20;0.80;;;;;;;15.08;59.08;98692.53;4973047;28;41155;-76
2022/05/25 05:04:07;;;;;;;4.93;1.10;;;;;;;15.29;59.05;98717.41;4956786;28;40738;-78
2022/05/25 05:06:35;;;;;;;1.87;0.83;;;;;;;15.38;59.27;98727.31;4956476;28;40610;-77
2022/05/25 05:09:06;;;;;;;1.67;0.70;;;;;;;15.48;59.51;98722.03;4973193;28;42928;-78
2022/05/25 05:11:36;;;;;;;0.73;0.73;;;;;;;15.60;59.37;98730.84;4957112;28;42287;-76
2022/05/25 05:14:04;;;;;;;1.43;0.70;;;;;;;15.65;59.19;98717.97;4956951;28;41482;-77
2022/05/25 05:16:32;;;;;;;5.07;1.20;;;;;;;15.72;59.39;98706.63;4972859;28;41870;-76
2022/05/25 05:19:13;;;;;;;0.90;0.80;;;;;;;15.99;59.16;98735.44;4956708;28;43839;-77
2022/05/25 05:21:59;;;;;;;0.73;0.73;;;;;;;16.03;58.65;98717.34;4972879;28;41002;-76
2022/05/25 05:24:28;;;;;;;1.47;0.90;;;;;;;16.26;59.26;98737.56;4957024;28;38746;-77
2022/05/25 05:26:57;;;;;;;0.80;0.80;;;;;;;16.36;59.41;98734.91;4956078;28;40670;-75
2022/05/25 05:29:28;;;;;;;0.70;0.70;;;;;;;16.50;58.88;98738.06;4973864;28;42969;-77
2022/05/25 05:31:56;;;;;;;0.97;0.97;;;;;;;16.67;58.57;98747.28;4973843;28;42979;-79
2022/05/25 05:34:27;;;;;;;0.73;0.73;;;;;;;16.82;58.41;98759.28;4956734;28;40850;-76
2022/05/25 05:36:59;;;;;;;1.53;0.90;;;;;;;16.85;58.04;98734.09;4956428;28;40955;-78
2022/05/25 05:39:30;;;;;;;1.10;1.00;;;;;;;17.29;56.63;98775.56;4969717;28;42757;-78
2022/05/25 05:42:03;;;;;;;2.07;1.23;;;;;;;17.37;56.51;98753.44;4956464;28;42078;-78
2022/05/25 05:44:35;;;;;;;1.00;1.00;;;;;;;17.59;56.08;98777.22;4972721;28;39946;-74
2022/05/25 05:47:06;;;;;;;2.37;1.00;;;;;;;17.62;55.63;98776.94;4969387;28;41504;-75
2022/05/25 05:49:36;;;;;;;0.93;0.83;;;;;;;17.62;55.13;98789.50;4971960;28;42997;-75
2022/05/25 05:52:05;;;;;;;0.97;0.83;;;;;;;17.62;55.05;98785.00;4972311;28;42787;-76
2022/05/25 05:54:33;;;;;;;1.07;0.97;;;;;;;17.69;55.14;98793.31;4971968;28;40409;-75
2022/05/25 05:57:01;;;;;;;1.13;0.93;;;;;;;17.70;55.09;98786.97;4972278;28;42755;-76
2022/05/25 05:59:29;;;;;;;0.60;0.60;;;;;;;17.69;54.51;98799.53;4956078;28;43441;-76
2022/05/25 06:01:57;;;;;;;0.70;0.70;;;;;;;17.62;54.51;98795.69;4972321;28;42451;-77
2022/05/25 06:04:25;;;;;;;1.00;0.80;;;;;;;17.65;54.07;98794.59;4972168;28;40040;-75
2022/05/25 06:06:54;;;;;;;1.20;0.80;;;;;;;17.74;53.77;98807.16;4955858;28;41922;-76
2022/05/25 06:09:22;;;;;;;1.97;0.77;;;;;;;17.82;53.07;98815.31;4972037;28;41752;-76
2022/05/25 06:11:49;;;;;;;1.43;1.00;;;;;;;17.94;52.94;98822.19;4955614;28;41499;-78
2022/05/25 06:14:17;;;;;;;1.10;1.00;;;;;;;18.03;52.13;98831.25;4972162;28;40004;-76
2022/05/25 06:19:33;;;;;;;0.73;0.70;;;;;;;17.98;51.92;98830.81;4970378;28;42824;-78
2022/05/25 06:22:05;;;;;;;0.60;0.60;;;;;;;18.02;51.85;98830.38;4968551;28;42528;-76
2022/05/25 06:24:37;;;;;;;0.73;0.60;;;;;;;18.12;51.97;98838.41;4972205;28;39756;-77
2022/05/25 06:27:08;;;;;;;0.97;0.90;;;;;;;18.21;52.28;98824.97;4955948;28;42245;-76
2022/05/25 06:29:37;;;;;;;2.73;0.70;;;;;;;18.41;52.13;98835.66;4955317;28;41680;-74
2022/05/25 06:32:06;;;;;;;0.90;0.67;;;;;;;18.61;51.08;98848.03;4955787;28;42269;-75
2022/05/25 06:34:34;;;;;;;0.80;0.80;;;;;;;18.67;50.55;98847.44;4971659;28;38934;-76
2022/05/25 06:37:04;;;;;;;0.97;0.70;;;;;;;18.73;50.55;98859.44;4971793;28;40922;-77
2022/05/25 06:39:36;;;;;;;0.97;0.77;;;;;;;18.82;50.37;98854.03;4955476;28;42768;-77
2022/05/25 06:42:04;;;;;;;1.87;0.80;;;;;;;18.91;50.27;98850.47;4970064;28;42270;-75
2022/05/25 06:44:33;;;;;;;0.87;0.67;;;;;;;19.06;50.75;98847.25;4955503;28;40340;-78
2022/05/25 06:47:01;;;;;;;1.57;0.60;;;;;;;19.19;49.62;98847.75;4971446;28;40727;-76
2022/05/25 06:49:29;;;;;;;0.70;0.70;;;;;;;19.33;48.74;98849.94;4971726;28;43061;-76
2022/05/25 06:51:56;;;;;;;2.43;0.80;;;;;;;19.73;48.25;98871.88;4972762;28;41982;-77
2022/05/25 06:54:26;;;;;;;0.93;0.60;;;;;;;19.96;48.29;98868.72;4972741;28;40975;-75
2022/05/25 06:56:53;;;;;;;0.60;0.60;;;;;;;20.21;46.90;98885.91;4955306;28;40548;-76
2022/05/25 06:59:21;;;;;;;2.53;0.60;;;;;;;20.39;47.14;98874.16;4971668;28;43166;-75
2022/05/25 07:01:48;;;;;;;1.30;0.90;;;;;;;20.60;47.25;98881.00;4971162;28;42613;-77
2022/05/25 07:04:16;;;;;;;1.50;0.60;;;;;;;20.78;47.11;98887.16;4955760;28;39100;-75
2022/05/25 07:06:44;;;;;;;1.17;0.60;;;;;;;20.92;46.71;98886.56;4955225;28;41768;-79
2022/05/25 07:09:12;;;;;;;1.87;0.67;;;;;;;20.96;45.30;98900.56;4972661;28;42821;-79
2022/05/25 07:11:42;;;;;;;0.60;0.60;;;;;;;21.03;45.97;98891.66;4971158;28;42265;-75
2022/05/25 07:14:11;;;;;;;1.73;0.70;;;;;;;21.15;45.88;98893.06;4972032;28;40613;-78
2022/05/25 07:16:38;;;;;;;1.30;0.60;;;;;;;20.93;45.44;98836.25;4971225;28;42561;-76
2022/05/25 07:19:06;;;;;;;1.80;0.77;;;;;;;21.62;45.39;98903.38;4972572;28;42902;-78
2022/05/25 07:21:35;;;;;;;1.87;0.60;;;;;;;22.02;44.01;98899.91;4970980;28;42593;-79
2022/05/25 07:24:03;;;;;;;0.50;0.50;;;;;;;22.96;41.72;98920.13;4971365;28;39153;-76
2022/05/25 07:26:32;;;;;;;0.80;0.60;;;;;;;23.97;39.50;98932.69;4970862;28;40776;-77
2022/05/25 07:29:02;;;;;;;1.63;0.67;;;;;;;25.24;37.38;98950.88;4955214;28;41615;-75
2022/05/25 07:31:39;;;;;;;0.80;0.70;;;;;;;26.07;36.16;98939.66;4954876;28;42301;-76
2022/05/25 07:34:13;;;;;;;1.57;0.60;;;;;;;26.59;35.83;98956.66;4956025;28;39210;-77
2022/05/25 07:36:43;;;;;;;1.17;0.80;;;;;;;27.04;34.30;98958.09;4958036;28;42103;-77
2022/05/25 07:39:14;;;;;;;1.13;0.60;;;;;;;27.97;33.19;98965.72;4974579;28;41870;-75
2022/05/25 07:41:46;;;;;;;1.67;0.70;;;;;;;29.14;30.48;99001.56;4958195;28;42243;-77
2022/05/25 07:44:19;;;;;;;1.87;0.60;;;;;;;29.94;29.68;98991.28;4974425;28;39038;-80
2022/05/25 07:46:49;;;;;;;0.93;0.50;;;;;;;30.22;29.56;99000.00;4973786;28;40837;-77
2022/05/25 07:49:17;;;;;;;1.03;0.70;;;;;;;29.85;29.12;98989.84;4958241;28;41769;-80
2022/05/25 07:51:46;;;;;;;2.07;0.60;;;;;;;29.36;29.41;98999.41;4974090;28;41458;-79
2022/05/25 07:54:14;;;;;;;1.63;0.70;;;;;;;28.97;30.01;98991.28;4958526;28;38898;-78
2022/05/25 07:56:42;;;;;;;0.80;0.80;;;;;;;29.36;28.89;98999.41;4973837;28;42836;-79
2022/05/25 07:59:12;;;;;;;1.23;0.60;;;;;;;30.70;28.73;98996.78;4975499;28;43663;-76
2022/05/25 08:07:19;;;;;;;1.33;0.70;;;;;;;33.84;23.99;99027.63;4975276;28;41680;-78
2022/05/25 08:09:47;;;;;;;0.40;0.40;;;;;;;33.11;23.98;99021.75;4957762;28;41345;-78
2022/05/25 08:12:17;;;;;;;0.60;0.60;;;;;;;32.42;24.62;99018.56;4973897;28;42105;-77
2022/05/25 08:14:44;;;;;;;1.93;0.60;;;;;;;32.76;24.60;99013.47;4973787;28;40020;-77
2022/05/25 08:17:13;;;;;;;0.50;0.50;;;;;;;34.21;22.75;99028.13;4973287;28;41467;-79
2022/05/25 08:19:41;;;;;;;0.60;0.60;;;;;;;35.01;22.11;99037.31;4957366;28;41894;-78
2022/05/25 08:22:10;;;;;;;1.63;0.67;;;;;;;33.87;22.46;99037.31;4973581;28;41495;-76
2022/05/25 08:24:37;;;;;;;0.80;0.80;;;;;;;34.66;22.49;99029.25;4957594;28;38297;-80
2022/05/25 08:27:06;;;;;;;1.57;0.80;;;;;;;35.33;21.36;99018.34;4957042;28;40947;-80
2022/05/25 08:29:34;;;;;;;1.53;0.80;;;;;;;35.53;20.74;99029.66;4973453;28;43690;-78
2022/05/25 08:32:02;;;;;;;2.07;0.93;;;;;;;35.34;21.40;99025.53;4957425;28;42051;-76
2022/05/25 08:34:33;;;;;;;0.87;0.87;;;;;;;35.31;20.84;99009.50;4974792;28;40099;-76
2022/05/25 08:37:02;;;;;;;1.03;0.80;;;;;;;36.19;20.44;99034.16;4957401;28;41533;-79
2022/05/25 08:39:31;;;;;;;1.08;0.80;;;;;;;36.79;19.85;99037.88;4974637;28;43679;-75
2022/05/25 08:42:02;;;;;;;1.23;0.60;;;;;;;37.17;18.96;99043.22;4973288;28;42061;-74
2022/05/25 08:44:31;;;;;;;2.05;0.80;;;;;;;37.32;19.57;99025.94;4956764;28;39323;-77
2022/05/25 08:47:02;;;;;;;0.88;0.80;;;;;;;37.36;19.96;99027.06;4973435;28;42027;-75
2022/05/25 08:49:33;;;;;;;1.08;0.60;;;;;;;37.07;19.44;99034.84;4971683;28;43718;-76
2022/05/25 08:52:04;;;;;;;1.77;0.63;;;;;;;35.97;20.48;99025.91;4957099;28;41723;-76
2022/05/25 08:54:37;;;;;;;0.60;0.60;;;;;;;35.90;19.56;99024.41;4970568;28;40585;-76
2022/05/25 08:57:11;;;;;;;0.90;0.77;;;;;;;34.94;20.91;99026.50;4973180;28;41845;-74
2022/05/25 08:59:47;;;;;;;1.40;0.73;;;;;;;34.08;21.82;99016.56;4973308;28;42986;-76
2022/05/25 09:02:23;;;;;;;1.50;0.70;;;;;;;33.29;23.00;98996.13;4971436;28;43249;-76
2022/05/25 09:04:59;;;;;;;1.23;0.70;;;;;;;33.07;23.56;99002.16;4973119;28;38878;-79
2022/05/25 09:07:36;;;;;;;0.73;0.60;;;;;;;32.60;23.97;99005.88;4957013;28;41191;-78
2022/05/25 09:10:05;;;;;;;0.93;0.90;;;;;;;32.24;23.18;99015.06;4973119;28;41624;-78
2022/05/25 09:12:38;;;;;;;0.67;0.50;;;;;;;32.00;23.42;99014.91;4972836;28;42034;-79
2022/05/25 09:15:09;;;;;;;1.90;0.60;;;;;;;31.52;24.26;99012.06;4956907;28;39030;-79
2022/05/25 09:17:42;;;;;;;0.90;0.60;;;;;;;31.33;24.25;99013.09;4969607;28;42686;-75
2022/05/25 09:20:19;;;;;;;1.53;0.50;;;;;;;30.59;24.71;99005.69;4957098;28;43087;-77
2022/05/25 09:22:47;;;;;;;0.60;0.60;;;;;;;29.91;25.35;99000.75;4972455;28;43479;-76
2022/05/25 09:25:16;;;;;;;0.60;0.47;;;;;;;29.59;24.56;99005.28;4973712;28;40267;-77
2022/05/25 09:27:47;;;;;;;0.50;0.50;;;;;;;29.99;25.07;98980.56;4956531;28;40695;-75
2022/05/25 09:30:16;;;;;;;0.57;0.57;;;;;;;30.61;24.86;99006.31;4956315;28;42624;-74
2022/05/25 09:32:52;;;;;;;0.70;0.50;;;;;;;30.10;25.30;99012.66;4973519;28;43032;-77
2022/05/25 09:35:28;;;;;;;0.60;0.40;;;;;;;29.34;25.83;99012.44;4956506;28;39375;-75
2022/05/25 09:38:01;;;;;;;0.90;0.50;;;;;;;28.74;26.77;98999.84;4955848;28;41000;-76
2022/05/25 09:40:34;;;;;;;0.43;0.43;;;;;;;28.18;27.96;98992.84;4969478;28;42844;-75
2022/05/25 09:43:04;;;;;;;1.40;0.70;;;;;;;29.48;27.44;98997.75;4970753;28;42363;-76
2022/05/25 09:45:41;;;;;;;0.50;0.50;;;;;;;31.06;26.52;98985.94;4955900;28;40971;-75
2022/05/25 09:48:16;;;;;;;0.70;0.53;;;;;;;32.61;24.62;99011.13;4956154;28;41657;-76
2022/05/25 09:50:49;;;;;;;0.60;0.50;;;;;;;34.00;21.88;99031.50;4956443;28;42901;-76
2022/05/25 09:53:20;;;;;;;0.60;0.60;;;;;;;35.04;20.67;99034.09;4971950;28;42293;-76
2022/05/25 09:55:53;;;;;;;1.13;0.60;;;;;;;35.38;20.98;99034.94;4969278;28;40955;-77
2022/05/25 09:58:28;;;;;;;0.70;0.70;;;;;;;34.92;21.39;99023.16;4971101;28;40823;-76
2022/05/25 10:00:58;;;;;;;1.23;0.57;;;;;;;34.32;21.07;99026.44;4972098;28;42520;-76
2022/05/25 10:03:36;;;;;;;0.43;0.43;;;;;;;34.09;21.47;99026.50;4971979;28;43253;-76
2022/05/25 10:06:21;;;;;;;0.83;0.77;;;;;;;34.56;21.12;99029.91;4956072;28;39034;-77
2022/05/25 10:08:53;;;;;;;0.50;0.43;;;;;;;35.15;20.30;99017.47;4955708;28;40648;-76
2022/05/25 10:11:33;;;;;;;0.50;0.50;;;;;;;35.38;20.61;99021.16;4955821;28;41592;-76
2022/05/25 10:14:27;;;;;;;1.20;0.63;;;;;;;34.88;21.23;99024.72;4970213;28;43302;-74
2022/05/25 10:16:57;;;;;;;1.07;0.53;;;;;;;33.76;21.82;99025.22;4969149;28;39665;-75
2022/05/25 10:19:25;;;;;;;0.90;0.70;;;;;;;32.76;22.28;99007.97;4971735;28;41648;-75
2022/05/25 10:21:57;;;;;;;0.60;0.60;;;;;;;32.13;22.60;99022.13;4955055;28;41669;-74
2022/05/25 10:24:37;;;;;;;0.50;0.50;;;;;;;32.05;23.26;99017.78;4971808;28;41593;-74
2022/05/25 10:27:15;;;;;;;0.50;0.50;;;;;;;32.81;22.58;99016.31;4971535;28;38572;-74
2022/05/25 10:38:27;;;;;;;0.70;0.60;;;;;;;31.00;24.92;99003.28;4966004;28;40960;-75
2022/05/25 10:40:56;;;;;;;4.90;0.90;;;;;;;30.23;24.90;99006.31;4968447;28;41809;-74
2022/05/25 10:43:27;;;;;;;1.73;0.50;;;;;;;30.27;25.17;98996.63;4971121;28;42775;-75
2022/05/25 10:45:56;;;;;;;1.27;0.60;;;;;;;29.90;26.44;98996.34;4971681;28;42985;-78
2022/05/25 10:48:45;;;;;;;1.47;0.80;;;;;;;30.04;26.56;98986.25;4971909;28;39839;-73
2022/05/25 10:51:19;;;;;;;0.47;0.47;;;;;;;30.52;25.16;98993.94;4972991;28;41828;-77
2022/05/25 10:56:46;;;;;;;0.60;0.60;;;;;;;31.42;25.03;98995.31;4955231;28;42248;-81
2022/05/25 10:59:23;;;;;;;0.40;0.40;;;;;;;30.86;24.23;98996.22;4968971;28;40313;-84
2022/05/25 11:02:07;;;;;;;0.60;0.50;;;;;;;30.54;24.19;98997.34;4968771;28;42204;-75
2022/05/25 11:05:09;;;;;;;1.50;0.50;;;;;;;30.12;25.50;98990.59;4970066;28;42470;-86
2022/05/25 11:07:39;;;;;;;0.83;0.60;;;;;;;30.11;25.34;98984.31;4946342;28;42901;-84
2022/05/25 11:10:38;;;;;;;1.40;0.60;;;;;;;30.34;25.20;98984.59;4975440;28;39048;-83
2022/05/25 11:13:28;;;;;;;0.80;0.70;;;;;;;30.62;26.62;98966.97;4974368;28;41813;-76
2022/05/25 11:16:04;;;;;;;0.77;0.77;;;;;;;30.81;25.38;98971.44;4974893;28;41699;-79
2022/05/25 11:18:58;;;;;;;0.67;0.60;;;;;;;31.09;24.61;98984.69;4974503;28;42012;-74
2022/05/25 11:21:37;;;;;;;1.23;0.60;;;;;;;31.10;24.64;98980.06;4976414;28;40323;-82
2022/05/25 11:24:24;;;;;;;0.50;0.50;;;;;;;31.06;25.56;98960.47;4972334;28;42446;-74
2022/05/25 11:30:00;;;;;;;0.60;0.60;;;;;;;31.14;23.69;98986.78;5130229;27;20554;-85
2022/05/25 11:32:38;;;;;;;0.60;0.60;;;;;;;30.64;24.86;98975.81;5129059;27;39217;-78
2022/05/25 11:35:27;;;;;;;1.33;0.60;;;;;;;30.36;24.97;98985.19;5129521;27;41744;-83
2022/05/25 11:38:05;;;;;;;0.97;0.60;;;;;;;29.86;24.98;98994.25;5127779;27;42700;-82
2022/05/25 11:40:43;;;;;;;0.77;0.50;;;;;;;29.42;25.40;98993.16;5129183;27;41337;-85
2022/05/25 11:43:45;;;;;;;2.20;0.60;;;;;;;29.75;25.63;98989.47;5126879;27;40130;-88
2022/05/25 11:46:21;;;;;;;0.60;0.50;;;;;;;32.09;25.17;98980.63;5160245;27;42625;-78
2022/05/25 11:49:23;;;;;;;0.70;0.70;;;;;;;34.43;23.60;98998.03;5128696;27;42807;-82
2022/05/25 11:52:02;;;;;;;0.53;0.50;;;;;;;36.33;19.22;99024.44;5128527;27;42230;-87
2022/05/25 11:54:44;;;;;;;0.60;0.50;;;;;;;35.54;18.91;99026.66;5128564;27;39978;-77
2022/05/25 11:57:34;;;;;;;0.80;0.50;;;;;;;33.88;21.30;99011.47;5126558;27;42615;-83
2022/05/25 12:00:35;;;;;;;0.50;0.50;;;;;;;32.43;21.79;99009.28;5128906;27;41512;-83
2022/05/25 12:03:21;;;;;;;0.50;0.50;;;;;;;31.28;22.95;99004.75;5127404;27;42533;-81
2022/05/25 12:06:04;;;;;;;1.10;0.60;;;;;;;30.41;23.65;99000.94;5139089;27;41278;-75
2022/05/25 12:08:49;;;;;;;0.60;0.60;;;;;;;30.76;24.56;98993.16;5136012;27;41906;-79
2022/05/25 12:11:28;;;;;;;0.73;0.43;;;;;;;30.85;24.03;98999.19;5155245;27;41854;-76
2022/05/25 12:14:06;;;;;;;1.03;0.50;;;;;;;32.33;23.67;98992.56;5138980;27;43281;-76
2022/05/25 12:16:39;;;;;;;0.50;0.50;;;;;;;34.89;21.72;99001.63;5135948;27;40463;-76
2022/05/25 12:19:13;;;;;;;1.00;0.63;;;;;;;36.83;21.00;98997.63;5136920;27;41717;-84
2022/05/25 12:21:45;;;;;;;1.37;0.60;;;;;;;38.50;19.02;99020.72;5128720;27;41467;-84
2022/05/25 12:24:17;;;;;;;0.60;0.60;;;;;;;39.83;16.91;99027.94;5128458;27;42404;-77
2022/05/25 12:26:45;;;;;;;0.73;0.70;;;;;;;40.76;15.98;99036.44;5127033;27;40838;-82
2022/05/25 12:29:20;;;;;;;0.87;0.63;;;;;;;41.59;15.38;99039.09;5128494;27;41817;-86